Time;durP1;ratioP1;P1;durP2;ratioP2;P2;SDS_P1;SDS_P2;PMS_P1;PMS_P2;Temp;Humidity;BMP_temperature;BMP_pressure;BME280_temperature;BME280_humidity;BME280_pressure;Samples;Min_cycle;Max_cycle;Signal;HPM_P1;HPM_P2
2022/10/05 00:01:24;;;;;;;11.07;6.63;;;9.80;99.90;;;;;;4330935;28;10000603;-78
2022/10/05 00:03:57;;;;;;;8.95;6.57;;;9.80;99.90;;;;;;5024019;28;20119;-78
2022/10/05 00:06:25;;;;;;;10.90;5.55;;;9.90;99.90;;;;;;5029183;28;20144;-78
2022/10/05 00:08:51;;;;;;;10.55;5.70;;;9.90;99.90;;;;;;5026740;28;20021;-78
2022/10/05 00:11:17;;;;;;;9.50;5.80;;;9.90;99.90;;;;;;5034251;28;20013;-78
2022/10/05 00:13:43;;;;;;;12.80;6.22;;;9.90;99.90;;;;;;5035865;28;20052;-78
2022/10/05 00:16:19;;;;;;;11.23;6.15;;;9.90;99.90;;;;;;5027501;28;20540;-78
2022/10/05 00:18:49;;;;;;;10.73;6.18;;;9.90;99.90;;;;;;5027096;28;20041;-78
2022/10/05 00:21:41;;;;;;;11.38;7.07;;;9.90;99.90;;;;;;5032184;28;20367;-78
2022/10/05 00:24:09;;;;;;;12.32;6.70;;;9.90;99.90;;;;;;5026278;28;20041;-78
2022/10/05 00:26:35;;;;;;;12.27;7.28;;;9.90;99.90;;;;;;5029326;28;20033;-78
2022/10/05 00:29:05;;;;;;;9.45;6.85;;;9.80;99.90;;;;;;5023250;28;20253;-78
2022/10/05 00:31:32;;;;;;;8.48;6.70;;;9.90;99.90;;;;;;5024159;28;20032;-78
2022/10/05 00:33:57;;;;;;;12.63;6.68;;;9.80;99.90;;;;;;5026784;28;20014;-78
2022/10/05 00:36:25;;;;;;;11.65;6.57;;;9.80;99.90;;;;;;5032261;28;20363;-78
2022/10/05 00:38:52;;;;;;;11.18;7.20;;;9.70;99.90;;;;;;5023971;28;20033;-79
2022/10/05 00:41:21;;;;;;;11.80;6.55;;;9.60;99.90;;;;;;5030103;28;20038;-78
2022/10/05 00:44:23;;;;;;;10.07;6.82;;;9.50;99.90;;;;;;5029725;28;20057;-78
2022/10/05 00:47:16;;;;;;;14.32;6.60;;;9.40;99.90;;;;;;5034448;28;20164;-78
2022/10/05 00:49:57;;;;;;;8.90;5.43;;;9.40;99.90;;;;;;5025516;28;20033;-79
2022/10/05 00:52:33;;;;;;;10.52;7.28;;;9.40;99.90;;;;;;5025901;28;20123;-78
2022/10/05 00:55:10;;;;;;;9.68;6.85;;;9.40;99.90;;;;;;5023445;28;20063;-78
2022/10/05 00:57:54;;;;;;;10.45;7.25;;;9.40;99.90;;;;;;5034902;28;20203;-78
2022/10/05 01:00:24;;;;;;;11.70;7.57;;;9.40;99.90;;;;;;5025471;28;20013;-78
2022/10/05 01:03:18;;;;;;;9.38;6.38;;;9.50;99.90;;;;;;5028507;28;20010;-78
2022/10/05 01:05:43;;;;;;;10.93;7.18;;;9.50;99.90;;;;;;5027665;28;20053;-78
2022/10/05 01:08:27;;;;;;;11.93;7.13;;;9.50;99.90;;;;;;5031006;28;20763;-78
2022/10/05 01:11:17;;;;;;;9.95;7.07;;;9.50;99.90;;;;;;5029623;28;20005;-78
2022/10/05 01:14:01;;;;;;;10.32;6.38;;;9.50;99.90;;;;;;5030044;28;20139;-78
2022/10/05 01:16:49;;;;;;;;;;;9.50;99.90;;;;;;5032740;28;20394;-78
2022/10/05 01:19:26;;;;;;;10.35;5.90;;;9.60;99.90;;;;;;5036413;28;19987;-77
2022/10/05 01:22:06;;;;;;;7.03;5.32;;;9.60;99.90;;;;;;5033667;28;20505;-78
2022/10/05 01:25:20;;;;;;;6.88;5.38;;;9.60;99.90;;;;;;5037025;28;20112;-78
2022/10/05 01:27:45;;;;;;;6.88;5.10;;;9.60;99.90;;;;;;5052184;28;20136;-78
2022/10/05 01:30:16;;;;;;;7.18;5.50;;;9.60;99.90;;;;;;5030976;28;20104;-78
2022/10/05 01:33:11;;;;;;;9.45;5.30;;;9.60;99.90;;;;;;5029573;28;20113;-78
2022/10/05 01:35:43;;;;;;;7.75;5.93;;;9.60;99.90;;;;;;5023871;28;20018;-78
2022/10/05 01:38:09;;;;;;;8.73;5.97;;;9.60;99.90;;;;;;5035714;28;20312;-78
2022/10/05 01:40:49;;;;;;;10.85;6.53;;;9.60;99.90;;;;;;5027748;28;20128;-78
2022/10/05 01:43:35;;;;;;;9.75;7.05;;;9.60;99.90;;;;;;5026937;28;20029;-78
2022/10/05 01:46:23;;;;;;;12.02;6.80;;;9.60;99.90;;;;;;5038547;28;20073;-78
2022/10/05 01:49:28;;;;;;;13.90;7.78;;;9.60;99.90;;;;;;5027620;28;20327;-78
2022/10/05 01:52:12;;;;;;;14.63;7.43;;;9.60;99.90;;;;;;5025404;28;20123;-78
2022/10/05 01:55:19;;;;;;;14.05;7.68;;;9.60;99.90;;;;;;5037843;28;20032;-78
2022/10/05 01:57:57;;;;;;;12.60;7.20;;;9.60;99.90;;;;;;5036364;28;20109;-77
2022/10/05 02:00:23;;;;;;;14.43;7.03;;;9.50;99.90;;;;;;5030292;28;20025;-78
2022/10/05 02:03:20;;;;;;;15.70;7.63;;;9.50;99.90;;;;;;5029481;28;20028;-78
2022/10/05 02:06:01;;;;;;;10.43;7.22;;;9.40;99.90;;;;;;5028766;28;20025;-78
2022/10/05 02:08:37;;;;;;;12.05;7.22;;;9.40;99.90;;;;;;5027045;28;20034;-78
2022/10/05 02:11:07;;;;;;;12.35;7.60;;;9.30;99.90;;;;;;5037072;28;20091;-78
2022/10/05 02:13:45;;;;;;;10.48;7.30;;;9.30;99.90;;;;;;5035497;28;20025;-78
2022/10/05 02:16:33;;;;;;;10.38;7.25;;;9.20;99.90;;;;;;5041490;28;20496;-78
2022/10/05 02:19:22;;;;;;;15.77;7.57;;;9.20;99.90;;;;;;5029781;28;20045;-78
2022/10/05 02:21:54;;;;;;;12.20;7.63;;;9.10;99.90;;;;;;5030900;28;20453;-78
2022/10/05 02:24:30;;;;;;;9.57;7.55;;;9.10;99.90;;;;;;5035935;28;20049;-78
2022/10/05 02:26:56;;;;;;;11.35;7.43;;;9.00;99.90;;;;;;5030324;28;20035;-77
2022/10/05 02:29:26;;;;;;;9.65;7.30;;;9.00;99.90;;;;;;5043141;28;20056;-78
2022/10/05 02:32:12;;;;;;;10.13;7.30;;;8.90;99.90;;;;;;5043146;28;20025;-78
2022/10/05 02:34:40;;;;;;;8.02;6.57;;;8.90;99.90;;;;;;5030484;28;20028;-78
2022/10/05 02:37:36;;;;;;;9.52;6.88;;;8.90;99.90;;;;;;5038755;28;20083;-78
2022/10/05 02:40:09;;;;;;;10.43;6.80;;;8.90;99.90;;;;;;5030427;28;20029;-78
2022/10/05 02:42:53;;;;;;;11.73;6.55;;;8.90;99.90;;;;;;5031065;28;20020;-78
2022/10/05 02:45:42;;;;;;;12.77;7.40;;;8.90;99.90;;;;;;5039017;28;20063;-78
2022/10/05 02:48:17;;;;;;;12.07;7.68;;;8.90;99.90;;;;;;5027267;28;20120;-78
2022/10/05 02:50:48;;;;;;;13.20;7.82;;;9.00;99.90;;;;;;5030594;28;20037;-78
2022/10/05 02:53:42;;;;;;;17.17;8.00;;;9.00;99.90;;;;;;5029935;28;20009;-78
2022/10/05 02:56:25;;;;;;;;;;;9.00;99.90;;;;;;5031736;28;20036;-78
2022/10/05 02:59:18;;;;;;;12.73;7.20;;;9.10;99.90;;;;;;5028242;28;20038;-78
2022/10/05 03:01:51;;;;;;;14.38;7.47;;;9.10;99.90;;;;;;5030661;28;20452;-79
2022/10/05 03:04:39;;;;;;;;;;;9.10;99.90;;;;;;5038869;28;20052;-78
2022/10/05 03:07:14;;;;;;;14.45;8.20;;;9.10;99.90;;;;;;5036571;28;19913;-78
2022/10/05 03:09:52;;;;;;;12.80;7.93;;;9.20;99.90;;;;;;5031764;28;20021;-78
2022/10/05 03:12:51;;;;;;;14.60;8.05;;;9.20;99.90;;;;;;5032278;28;20040;-78
2022/10/05 03:15:50;;;;;;;14.68;8.25;;;9.20;99.90;;;;;;5029510;28;20013;-78
2022/10/05 03:18:34;;;;;;;11.40;7.80;;;9.20;99.90;;;;;;5024465;28;20037;-78
2022/10/05 03:21:03;;;;;;;14.00;8.68;;;9.20;99.90;;;;;;5029394;28;20470;-78
2022/10/05 03:23:47;;;;;;;13.10;8.43;;;9.20;99.90;;;;;;5037931;28;20100;-78
2022/10/05 03:26:16;;;;;;;12.30;8.05;;;9.20;99.90;;;;;;5029669;28;20025;-78
2022/10/05 03:28:47;;;;;;;10.80;7.60;;;9.20;99.90;;;;;;5030237;28;20045;-78
2022/10/05 03:31:25;;;;;;;14.23;8.30;;;9.20;99.90;;;;;;5039111;28;20056;-78
2022/10/05 03:34:14;;;;;;;15.65;8.25;;;9.10;99.90;;;;;;5035662;28;20573;-78
2022/10/05 03:36:49;;;;;;;11.57;7.88;;;9.10;99.90;;;;;;5032487;28;20358;-78
2022/10/05 03:39:37;;;;;;;15.00;8.88;;;9.10;99.90;;;;;;5039407;28;20103;-78
2022/10/05 03:42:10;;;;;;;15.00;9.30;;;9.10;99.90;;;;;;5030207;28;20060;-78
2022/10/05 03:44:54;;;;;;;12.27;7.85;;;9.10;99.90;;;;;;5038358;28;20105;-78
2022/10/05 03:47:36;;;;;;;14.35;8.88;;;9.10;99.90;;;;;;5029367;28;20669;-78
2022/10/05 03:50:10;;;;;;;13.88;8.95;;;9.10;99.90;;;;;;5037316;28;20053;-78
2022/10/05 03:52:51;;;;;;;12.82;9.27;;;9.00;99.90;;;;;;5036607;28;20041;-78
2022/10/05 03:55:39;;;;;;;16.85;8.95;;;9.00;99.90;;;;;;5032236;28;20057;-78
2022/10/05 03:58:33;;;;;;;13.85;8.45;;;9.00;99.90;;;;;;5029682;28;20029;-78
2022/10/05 04:01:04;;;;;;;18.60;9.52;;;9.00;99.90;;;;;;5033380;28;20090;-78
2022/10/05 04:03:45;;;;;;;13.30;9.18;;;9.00;99.90;;;;;;5041273;28;20033;-78
2022/10/05 04:06:23;;;;;;;16.63;9.25;;;9.00;99.90;;;;;;5030127;28;20044;-78
2022/10/05 04:08:54;;;;;;;15.98;8.82;;;8.90;99.90;;;;;;5029313;28;20417;-78
2022/10/05 04:11:36;;;;;;;13.07;8.52;;;8.90;99.90;;;;;;5025706;28;20359;-78
2022/10/05 04:14:34;;;;;;;14.02;8.68;;;8.90;99.90;;;;;;5023903;28;20385;-77
2022/10/05 04:17:12;;;;;;;16.90;8.90;;;8.80;99.90;;;;;;5015623;28;20041;-78
2022/10/05 04:20:02;;;;;;;15.23;8.85;;;8.80;99.90;;;;;;5025719;28;20464;-78
2022/10/05 04:22:39;;;;;;;15.38;9.45;;;8.80;99.90;;;;;;5028250;28;20033;-78
2022/10/05 04:25:23;;;;;;;14.20;9.15;;;8.80;99.90;;;;;;5029582;28;20047;-77
2022/10/05 04:27:51;;;;;;;;;;;8.80;99.90;;;;;;5029030;28;20072;-78
2022/10/05 04:30:18;;;;;;;14.88;9.43;;;8.70;99.90;;;;;;5031359;28;19919;-78
2022/10/05 04:32:51;;;;;;;14.57;10.27;;;8.70;99.90;;;;;;5025103;28;21029;-78
2022/10/05 04:35:36;;;;;;;12.50;7.70;;;8.70;99.90;;;;;;5027133;28;20033;-78
2022/10/05 04:38:21;;;;;;;17.88;11.50;;;8.80;99.90;;;;;;5023833;28;20029;-78
2022/10/05 04:40:52;;;;;;;22.02;11.13;;;8.80;99.90;;;;;;5026874;28;20049;-78
2022/10/05 04:43:33;;;;;;;16.13;10.38;;;8.80;99.90;;;;;;5027386;28;20103;-78
2022/10/05 04:46:23;;;;;;;14.40;10.02;;;8.90;99.90;;;;;;5034324;28;20063;-78
2022/10/05 04:49:18;;;;;;;17.67;9.20;;;8.80;99.90;;;;;;5031916;28;20052;-78
2022/10/05 04:52:06;;;;;;;16.67;10.90;;;8.80;99.90;;;;;;5028712;28;20025;-78
2022/10/05 04:54:49;;;;;;;17.75;10.63;;;8.90;99.90;;;;;;5030184;28;20078;-78
2022/10/05 04:57:37;;;;;;;17.30;10.10;;;8.90;99.90;;;;;;5028155;28;20113;-78
2022/10/05 05:00:23;;;;;;;19.35;11.02;;;8.90;99.90;;;;;;5029095;28;20112;-78
2022/10/05 05:03:22;;;;;;;17.13;10.38;;;8.90;99.90;;;;;;5026720;28;20094;-78
2022/10/05 05:06:15;;;;;;;17.45;10.45;;;8.90;99.90;;;;;;5030031;28;20140;-78
2022/10/05 05:09:11;;;;;;;15.93;11.02;;;8.90;99.90;;;;;;5025301;28;20409;-78
2022/10/05 05:12:02;;;;;;;24.45;12.25;;;8.90;99.90;;;;;;5023362;28;20037;-78
2022/10/05 05:14:31;;;;;;;40.58;22.50;;;8.80;99.90;;;;;;5032606;28;20030;-78
2022/10/05 05:17:24;;;;;;;27.65;17.70;;;8.80;99.90;;;;;;5026675;28;20095;-78
2022/10/05 05:20:15;;;;;;;32.20;19.40;;;8.80;99.90;;;;;;5023635;28;20400;-78
2022/10/05 05:22:52;;;;;;;32.05;21.50;;;8.80;99.90;;;;;;5022141;28;20401;-78
2022/10/05 05:25:44;;;;;;;33.78;20.00;;;8.80;99.90;;;;;;5020018;28;20112;-78
2022/10/05 05:28:21;;;;;;;33.97;24.05;;;8.90;99.90;;;;;;5019887;28;20049;-78
2022/10/05 05:30:53;;;;;;;43.33;30.48;;;8.90;99.90;;;;;;5027514;28;20140;-78
2022/10/05 05:33:22;;;;;;;33.22;23.73;;;8.80;99.90;;;;;;5026125;28;20099;-78
2022/10/05 05:36:09;;;;;;;30.88;21.58;;;8.80;99.90;;;;;;5031495;28;20025;-78
2022/10/05 05:38:45;;;;;;;23.80;17.05;;;8.80;99.90;;;;;;5021877;28;20147;-78
2022/10/05 05:41:17;;;;;;;27.38;15.88;;;8.80;99.90;;;;;;5024850;28;20077;-78
2022/10/05 05:44:07;;;;;;;26.83;15.63;;;8.80;99.90;;;;;;5030106;28;20060;-78
2022/10/05 05:46:40;;;;;;;26.65;15.98;;;8.80;99.90;;;;;;5035304;28;20141;-78
2022/10/05 05:49:26;;;;;;;15.90;11.43;;;8.70;99.90;;;;;;5029462;28;20495;-78
2022/10/05 05:51:56;;;;;;;29.98;20.90;;;8.70;99.90;;;;;;5037643;28;20032;-78
2022/10/05 05:54:40;;;;;;;40.72;29.42;;;8.70;99.90;;;;;;5032464;28;20404;-78
2022/10/05 05:57:22;;;;;;;41.55;28.65;;;8.70;99.90;;;;;;5030217;28;20409;-78
2022/10/05 05:59:59;;;;;;;30.40;21.88;;;8.70;99.90;;;;;;5029672;28;20037;-78
2022/10/05 06:02:36;;;;;;;33.13;23.75;;;8.70;99.90;;;;;;5033825;28;20028;-77
2022/10/05 06:05:21;;;;;;;34.15;22.33;;;8.80;99.90;;;;;;5037418;28;20029;-76
2022/10/05 06:07:47;;;;;;;41.80;23.95;;;8.80;99.90;;;;;;5024296;28;20025;-77
2022/10/05 06:10:37;;;;;;;37.80;23.90;;;9.00;99.90;;;;;;5030305;28;20052;-76
2022/10/05 06:13:12;;;;;;;33.95;22.13;;;9.10;99.90;;;;;;5021502;28;20382;-75
2022/10/05 06:15:43;;;;;;;40.45;23.92;;;9.20;99.90;;;;;;5030800;28;20037;-76
2022/10/05 06:18:12;;;;;;;40.67;23.67;;;9.20;99.90;;;;;;5031887;28;21777;-76
2022/10/05 06:20:57;;;;;;;44.53;26.85;;;9.30;99.90;;;;;;5034329;28;20082;-78
2022/10/05 06:23:32;;;;;;;42.20;27.05;;;9.40;99.90;;;;;;5035753;28;20108;-78
2022/10/05 06:26:19;;;;;;;49.03;29.25;;;9.40;99.90;;;;;;5037534;28;20032;-78
2022/10/05 06:28:52;;;;;;;58.88;33.72;;;9.50;99.90;;;;;;5027124;28;20052;-78
2022/10/05 06:31:40;;;;;;;62.38;35.78;;;9.50;99.90;;;;;;5025790;28;20033;-78
2022/10/05 06:34:16;;;;;;;66.07;37.33;;;9.60;99.90;;;;;;5022790;28;20068;-78
2022/10/05 06:36:58;;;;;;;66.43;36.67;;;9.70;99.90;;;;;;5029441;28;20033;-79
2022/10/05 06:39:56;;;;;;;67.57;34.95;;;9.80;99.90;;;;;;5032854;28;20033;-78
2022/10/05 06:42:40;;;;;;;67.95;35.58;;;9.90;99.90;;;;;;5034162;28;20100;-79
2022/10/05 06:45:29;;;;;;;56.92;32.47;;;10.00;99.90;;;;;;5033746;28;20033;-81
2022/10/05 06:48:14;;;;;;;57.95;34.70;;;10.00;99.90;;;;;;5033620;28;20025;-80
2022/10/05 06:50:47;;;;;;;62.08;35.53;;;10.10;99.90;;;;;;5028748;28;20025;-79
2022/10/05 06:53:19;;;;;;;;;;;10.10;99.90;;;;;;5037572;28;20090;-80
2022/10/05 06:56:16;;;;;;;55.85;33.28;;;10.20;99.90;;;;;;5024690;28;19924;-79
2022/10/05 06:58:46;;;;;;;54.10;33.25;;;10.20;99.90;;;;;;5020948;28;20052;-79
2022/10/05 07:01:24;;;;;;;59.72;33.67;;;10.30;99.90;;;;;;5028113;28;20116;-80
2022/10/05 07:03:53;;;;;;;52.55;33.10;;;10.40;99.90;;;;;;5031254;28;20112;-80
2022/10/05 07:06:30;;;;;;;58.75;34.45;;;10.40;99.90;;;;;;5030657;28;20026;-80
2022/10/05 07:09:14;;;;;;;60.25;36.08;;;10.50;99.90;;;;;;5034456;28;20757;-79
2022/10/05 07:12:01;;;;;;;56.50;35.25;;;10.60;99.90;;;;;;5039407;28;20493;-80
2022/10/05 07:14:55;;;;;;;51.83;32.40;;;10.60;99.90;;;;;;5038595;28;20371;-79
2022/10/05 07:17:25;;;;;;;;;;;10.70;99.90;;;;;;5023692;28;20029;-80
2022/10/05 07:19:56;;;;;;;45.10;29.25;;;10.80;99.90;;;;;;5031003;28;19955;-80
2022/10/05 07:22:53;;;;;;;52.00;31.58;;;10.90;99.90;;;;;;5036148;28;20037;-79
2022/10/05 07:25:30;;;;;;;50.47;30.70;;;10.90;99.90;;;;;;5030465;28;20030;-79
2022/10/05 07:28:05;;;;;;;50.38;30.50;;;11.00;99.90;;;;;;5032286;28;22173;-80
2022/10/05 07:31:00;;;;;;;47.47;29.42;;;11.00;99.90;;;;;;5033529;28;20037;-79
2022/10/05 07:33:46;;;;;;;47.10;29.38;;;11.10;99.90;;;;;;5039407;28;20043;-79
2022/10/05 07:39:40;;;;;;;53.17;33.95;;;11.20;99.90;;;;;;5036417;28;20075;-79
2022/10/05 07:42:31;;;;;;;46.08;30.30;;;11.20;99.90;;;;;;5033205;28;20061;-79
2022/10/05 07:45:16;;;;;;;48.75;35.22;;;11.20;99.90;;;;;;5024315;28;20073;-79
2022/10/05 07:47:50;;;;;;;46.28;28.00;;;11.20;99.90;;;;;;5026245;28;20569;-79
2022/10/05 07:50:36;;;;;;;41.13;26.63;;;11.20;99.90;;;;;;5026086;28;20021;-78
2022/10/05 07:53:30;;;;;;;44.03;26.40;;;11.30;99.90;;;;;;5032482;28;20032;-79
2022/10/05 07:56:01;;;;;;;37.47;25.02;;;11.40;99.90;;;;;;5044594;28;20377;-79
2022/10/05 07:58:41;;;;;;;41.20;25.23;;;11.40;99.90;;;;;;5027713;28;20032;-80
2022/10/05 08:01:10;;;;;;;40.45;24.85;;;11.50;99.90;;;;;;5034848;28;20033;-79
2022/10/05 08:03:55;;;;;;;36.72;23.40;;;11.50;99.90;;;;;;5035325;28;20056;-79
2022/10/05 08:06:43;;;;;;;35.20;22.65;;;11.60;99.90;;;;;;5033446;28;20033;-78
2022/10/05 08:09:12;;;;;;;37.83;26.10;;;11.60;99.90;;;;;;5031514;28;20050;-79
2022/10/05 08:11:50;;;;;;;36.92;25.05;;;11.70;99.90;;;;;;5036265;28;20028;-79
2022/10/05 08:14:24;;;;;;;36.28;23.58;;;11.80;99.90;;;;;;5032137;28;20083;-79
2022/10/05 08:16:52;;;;;;;33.22;22.20;;;11.90;99.90;;;;;;5037825;28;20033;-79
2022/10/05 08:19:32;;;;;;;30.77;19.85;;;11.90;99.90;;;;;;5036288;28;20018;-79
2022/10/05 08:22:05;;;;;;;31.50;20.45;;;11.90;99.90;;;;;;5032627;28;20444;-79
2022/10/05 08:24:58;;;;;;;34.67;20.00;;;12.00;99.90;;;;;;5027458;28;20180;-79
2022/10/05 08:27:55;;;;;;;33.38;19.88;;;12.00;99.90;;;;;;5031319;28;20033;-79
2022/10/05 08:30:22;;;;;;;28.13;20.23;;;12.00;99.90;;;;;;5033928;28;20036;-79
2022/10/05 08:33:09;;;;;;;26.30;18.98;;;12.10;99.90;;;;;;5028879;28;20037;-79
2022/10/05 08:35:42;;;;;;;29.27;18.25;;;12.10;99.90;;;;;;5027882;28;20044;-78
2022/10/05 08:38:21;;;;;;;26.50;18.30;;;12.20;99.90;;;;;;5031937;28;20030;-79
2022/10/05 08:41:18;;;;;;;24.58;17.90;;;12.20;99.90;;;;;;5028840;28;20074;-79
2022/10/05 08:43:53;;;;;;;25.90;17.48;;;;;;;;;;5023650;28;20033;-78
2022/10/05 08:46:41;;;;;;;27.92;19.67;;;12.20;99.90;;;;;;5025819;28;20856;-78
2022/10/05 08:49:21;;;;;;;25.30;18.40;;;12.30;99.90;;;;;;5033122;28;20096;-79
2022/10/05 08:51:53;;;;;;;25.95;18.45;;;12.30;99.90;;;;;;5034327;28;20028;-79
2022/10/05 08:54:38;;;;;;;23.50;17.48;;;12.40;99.90;;;;;;5033932;28;20428;-78
2022/10/05 08:57:25;;;;;;;25.20;16.55;;;12.50;99.90;;;;;;5022133;28;20121;-78
2022/10/05 09:00:03;;;;;;;22.48;15.55;;;12.70;99.90;;;;;;5027706;28;20029;-78
2022/10/05 09:03:01;;;;;;;19.77;14.70;;;13.00;99.90;;;;;;5036740;28;20033;-78
2022/10/05 09:05:36;;;;;;;23.73;14.98;;;13.20;99.90;;;;;;5037992;28;20033;-78
2022/10/05 09:08:20;;;;;;;19.20;13.77;;;13.40;99.90;;;;;;5025609;28;20438;-78
2022/10/05 09:11:15;;;;;;;19.15;14.50;;;13.50;99.90;;;;;;5033534;28;20398;-78
2022/10/05 09:13:53;;;;;;;21.00;14.90;;;13.60;99.90;;;;;;5034388;28;20052;-78
2022/10/05 09:16:54;;;;;;;19.08;13.55;;;13.80;99.90;;;;;;5029684;28;20075;-78
2022/10/05 09:19:23;;;;;;;22.08;13.48;;;13.90;99.90;;;;;;5030174;28;20537;-80
2022/10/05 09:22:25;;;;;;;17.35;13.32;;;14.10;99.90;;;;;;5027202;28;20037;-78
2022/10/05 09:25:08;;;;;;;17.77;13.25;;;14.20;99.90;;;;;;5030557;28;20039;-78
2022/10/05 09:27:42;;;;;;;12.43;9.75;;;14.40;99.90;;;;;;5021694;28;20070;-78
2022/10/05 09:30:38;;;;;;;16.92;12.77;;;14.40;99.90;;;;;;5030129;28;20041;-78
2022/10/05 09:33:50;;;;;;;20.40;15.20;;;14.50;99.90;;;;;;5032202;28;20031;-78
2022/10/05 09:36:35;;;;;;;19.75;14.52;;;14.50;99.90;;;;;;5027270;28;20033;-78
2022/10/05 09:39:25;;;;;;;20.58;15.35;;;14.40;99.90;;;;;;5033818;28;20113;-78
2022/10/05 09:42:10;;;;;;;20.23;14.10;;;14.40;99.90;;;;;;5033388;28;20383;-78
2022/10/05 09:45:01;;;;;;;16.92;13.38;;;14.40;99.90;;;;;;5039623;28;20035;-78
2022/10/05 09:47:29;;;;;;;16.30;12.65;;;14.40;99.90;;;;;;5030684;28;20577;-78
2022/10/05 09:50:16;;;;;;;14.35;12.27;;;14.30;99.90;;;;;;5029608;28;20091;-78
2022/10/05 09:53:03;;;;;;;17.50;12.57;;;14.30;99.90;;;;;;5029297;28;20025;-79
2022/10/05 09:55:32;;;;;;;17.52;12.32;;;14.30;99.90;;;;;;5026932;28;20052;-79
2022/10/05 09:58:21;;;;;;;17.35;12.30;;;14.30;99.90;;;;;;5024777;28;20025;-80
2022/10/05 10:00:53;;;;;;;19.35;12.30;;;14.20;99.90;;;;;;5031697;28;20029;-78
2022/10/05 10:04:01;;;;;;;16.10;11.25;;;14.30;99.90;;;;;;5029380;28;20026;-79
2022/10/05 10:06:51;;;;;;;17.27;10.85;;;14.30;99.90;;;;;;5037123;28;20032;-78
2022/10/05 10:09:24;;;;;;;16.77;9.73;;;14.30;99.90;;;;;;5020293;28;20635;-79
2022/10/05 10:12:30;;;;;;;15.32;10.60;;;14.40;99.90;;;;;;5025647;28;20028;-78
2022/10/05 10:15:37;;;;;;;14.07;9.23;;;14.50;99.90;;;;;;5014157;28;20025;-78
2022/10/05 10:18:28;;;;;;;13.85;9.02;;;14.60;99.90;;;;;;5035609;28;20108;-78
2022/10/05 10:21:06;;;;;;;9.70;7.50;;;14.60;99.90;;;;;;5031492;28;20149;-80
2022/10/05 10:24:01;;;;;;;12.43;8.13;;;14.70;99.90;;;;;;5034889;28;20117;-78
2022/10/05 10:26:46;;;;;;;10.95;7.60;;;14.70;99.90;;;;;;5027940;28;20081;-79
2022/10/05 10:29:46;;;;;;;12.50;8.35;;;14.80;99.90;;;;;;5019620;28;20048;-79
2022/10/05 10:32:49;;;;;;;12.05;7.97;;;14.80;99.90;;;;;;5041018;28;20061;-78
2022/10/05 10:35:30;;;;;;;10.90;7.85;;;14.90;99.90;;;;;;5035293;28;20028;-78
2022/10/05 10:38:22;;;;;;;12.88;7.47;;;15.00;99.90;;;;;;5042552;28;20025;-79
2022/10/05 10:41:03;;;;;;;10.52;6.93;;;15.20;99.90;;;;;;5033558;28;20396;-79
2022/10/05 10:43:38;;;;;;;8.35;6.25;;;15.30;99.90;;;;;;5033076;28;20575;-78
2022/10/05 10:46:43;;;;;;;8.07;5.57;;;15.40;99.90;;;;;;5028270;28;20076;-78
2022/10/05 10:49:21;;;;;;;6.95;5.97;;;15.40;99.90;;;;;;5030638;28;20174;-79
2022/10/05 10:51:50;;;;;;;7.55;5.40;;;15.40;99.90;;;;;;5027006;28;20106;-78
2022/10/05 10:54:37;;;;;;;7.22;5.13;;;15.50;99.90;;;;;;5036771;28;20501;-79
2022/10/05 10:57:09;;;;;;;7.80;5.65;;;15.40;99.90;;;;;;5032789;28;20025;-78
2022/10/05 10:59:54;;;;;;;11.80;6.00;;;15.40;99.90;;;;;;5034481;28;20388;-79
2022/10/05 11:02:51;;;;;;;7.07;4.75;;;15.40;99.90;;;;;;5038812;28;20022;-78
2022/10/05 11:05:19;;;;;;;5.05;4.50;;;15.40;99.90;;;;;;5028032;28;20060;-80
2022/10/05 11:08:15;;;;;;;7.50;5.70;;;15.40;99.90;;;;;;5025557;28;21002;-79
2022/10/05 11:10:59;;;;;;;8.45;5.68;;;15.60;99.90;;;;;;5042112;28;20056;-78
2022/10/05 11:14:01;;;;;;;8.65;5.13;;;15.60;99.90;;;;;;5033152;28;20048;-78
2022/10/05 11:16:45;;;;;;;8.80;6.03;;;15.70;99.90;;;;;;5028416;28;20108;-79
2022/10/05 11:19:23;;;;;;;9.88;5.80;;;15.70;99.90;;;;;;5028261;28;20038;-78
2022/10/05 11:22:16;;;;;;;7.68;4.47;;;15.80;99.90;;;;;;5031643;28;20053;-78
2022/10/05 11:25:05;;;;;;;7.32;5.05;;;15.90;99.90;;;;;;5036485;28;20037;-78
2022/10/05 11:27:56;;;;;;;7.10;4.80;;;16.00;99.90;;;;;;5028417;28;20039;-78
2022/10/05 11:30:40;;;;;;;8.60;4.45;;;16.10;99.90;;;;;;5032613;28;20239;-79
2022/10/05 11:33:42;;;;;;;10.45;4.47;;;16.20;99.90;;;;;;5032334;28;20034;-78
2022/10/05 11:36:16;;;;;;;4.50;3.80;;;16.40;99.90;;;;;;5032129;28;20064;-78
2022/10/05 11:39:07;;;;;;;5.68;4.18;;;16.40;99.90;;;;;;5027535;28;20094;-79
2022/10/05 11:42:03;;;;;;;8.23;4.55;;;16.40;99.90;;;;;;5036725;28;20709;-79
2022/10/05 11:45:05;;;;;;;7.70;4.57;;;16.40;99.90;;;;;;5035432;28;20036;-78
2022/10/05 11:47:45;;;;;;;6.32;4.10;;;16.40;99.90;;;;;;5029959;28;20037;-78
2022/10/05 11:50:20;;;;;;;7.13;3.83;;;16.50;99.90;;;;;;5031015;28;20029;-79
2022/10/05 11:53:06;;;;;;;4.95;3.70;;;16.80;99.90;;;;;;5038730;28;20028;-78
2022/10/05 11:56:04;;;;;;;5.25;3.50;;;17.10;99.90;;;;;;5030087;28;20029;-79
2022/10/05 11:58:48;;;;;;;4.78;3.55;;;17.30;99.90;;;;;;5030403;28;20057;-79
2022/10/05 12:01:29;;;;;;;3.72;3.40;;;17.40;99.90;;;;;;5037541;28;20489;-78
2022/10/05 12:04:05;;;;;;;5.55;3.40;;;17.40;99.90;;;;;;5038725;28;20060;-78
2022/10/05 12:06:36;;;;;;;5.35;3.40;;;17.50;99.90;;;;;;5026873;28;20156;-79
2022/10/05 12:09:13;;;;;;;6.00;4.07;;;17.70;99.90;;;;;;5024492;28;20029;-79
2022/10/05 12:11:58;;;;;;;6.00;3.50;;;17.80;99.90;;;;;;5027202;28;20026;-78
2022/10/05 12:14:49;;;;;;;6.90;4.00;;;18.00;99.90;;;;;;5022387;28;20033;-78
2022/10/05 12:17:32;;;;;;;4.70;3.90;;;18.10;99.90;;;;;;5029966;28;20049;-78
2022/10/05 12:20:15;;;;;;;7.25;4.13;;;18.10;99.90;;;;;;5032005;28;20017;-78
2022/10/05 12:22:49;;;;;;;5.90;3.88;;;18.10;99.90;;;;;;5034745;28;20033;-78
2022/10/05 12:25:40;;;;;;;4.97;4.07;;;18.00;99.90;;;;;;5026312;28;20040;-78
2022/10/05 12:28:14;;;;;;;4.45;4.05;;;18.00;99.90;;;;;;5025958;28;20132;-79
2022/10/05 12:31:01;;;;;;;9.73;4.47;;;17.90;99.90;;;;;;5029030;28;20798;-78
2022/10/05 12:33:34;;;;;;;6.00;4.18;;;18.10;99.90;;;;;;5035570;28;20032;-78
2022/10/05 12:36:18;;;;;;;5.20;4.32;;;18.20;99.90;;;;;;5029649;28;20033;-79
2022/10/05 12:39:04;;;;;;;4.82;3.50;;;18.20;99.90;;;;;;5028287;28;20045;-78
2022/10/05 12:41:44;;;;;;;6.32;3.88;;;18.30;99.90;;;;;;5037376;28;20517;-78
2022/10/05 12:44:23;;;;;;;6.80;4.25;;;18.40;99.90;;;;;;5028340;28;24125;-78
2022/10/05 12:47:19;;;;;;;6.25;4.45;;;18.50;99.90;;;;;;5033316;28;20032;-78
2022/10/05 12:50:07;;;;;;;6.28;4.00;;;18.50;99.90;;;;;;5031339;28;20091;-78
2022/10/05 12:53:06;;;;;;;6.32;4.00;;;18.40;99.90;;;;;;5031783;28;20028;-78
2022/10/05 12:55:57;;;;;;;5.38;4.30;;;18.40;99.90;;;;;;5027952;28;20026;-78
2022/10/05 12:58:50;;;;;;;9.38;4.07;;;18.40;99.90;;;;;;5027933;28;20472;-78
2022/10/05 13:01:53;;;;;;;7.40;4.27;;;18.40;99.90;;;;;;5027414;28;20276;-76
2022/10/05 13:04:37;;;;;;;6.25;5.35;;;18.20;99.90;;;;;;5032996;28;20037;-78
2022/10/05 13:07:32;;;;;;;8.23;5.43;;;18.00;99.90;;;;;;5025005;28;20040;-78
2022/10/05 13:10:07;;;;;;;6.28;4.75;;;17.80;99.90;;;;;;5036123;28;20017;-78
2022/10/05 13:13:00;;;;;;;8.15;4.80;;;17.50;99.90;;;;;;5035703;28;20036;-78
2022/10/05 13:15:37;;;;;;;14.02;5.65;;;17.40;99.90;;;;;;5025852;28;20037;-78
2022/10/05 13:18:20;;;;;;;7.60;5.20;;;17.40;99.90;;;;;;5024868;28;20064;-78
2022/10/05 13:21:03;;;;;;;6.97;5.50;;;17.50;99.90;;;;;;5025513;28;20482;-78
2022/10/05 13:23:34;;;;;;;6.32;5.40;;;17.60;99.90;;;;;;5030763;28;20108;-78
2022/10/05 13:26:20;;;;;;;6.40;5.38;;;17.60;99.90;;;;;;5038595;28;20029;-78
2022/10/05 13:29:21;;;;;;;10.68;5.97;;;17.60;99.90;;;;;;5033162;28;20056;-78
2022/10/05 13:31:53;;;;;;;10.38;6.90;;;17.50;99.90;;;;;;5033157;28;20024;-78
2022/10/05 13:34:42;;;;;;;7.78;6.57;;;17.40;99.90;;;;;;5026503;28;20075;-77
2022/10/05 13:37:30;;;;;;;8.98;7.10;;;17.40;99.90;;;;;;5022957;28;20043;-78
2022/10/05 13:40:26;;;;;;;7.30;5.88;;;17.40;99.90;;;;;;5020114;28;20780;-78
2022/10/05 13:43:37;;;;;;;8.75;6.18;;;17.50;99.90;;;;;;5032343;28;20032;-78
2022/10/05 13:46:09;;;;;;;8.48;5.93;;;17.50;99.90;;;;;;5032348;28;20409;-78
2022/10/05 13:49:12;;;;;;;15.55;6.78;;;17.60;99.90;;;;;;5026172;28;20511;-78
2022/10/05 13:52:07;;;;;;;7.23;5.77;;;17.70;99.90;;;;;;5025735;28;20048;-78
2022/10/05 13:54:57;;;;;;;11.35;5.93;;;17.70;99.90;;;;;;5027111;28;20287;-77
2022/10/05 13:58:04;;;;;;;8.10;6.22;;;17.70;99.90;;;;;;5020809;28;20061;-77
2022/10/05 14:00:32;;;;;;;8.25;5.70;;;17.60;99.90;;;;;;5029233;28;20127;-77
2022/10/05 14:02:59;;;;;;;6.32;5.63;;;17.60;99.90;;;;;;5030288;28;20385;-77
2022/10/05 14:05:30;;;;;;;8.57;5.32;;;17.60;99.90;;;;;;5030725;28;20033;-77